• Join FlightAware (Why Join?)
  • Login
  • US Flag GB Flag 
09:31 EDT


 

Airport Tracker/Info


-or-


 

Live Flight TrackerFlight Track Log ✈ AWE3418 ✈ 18-Apr-2013 ✈ KPHL - KMHT

Flight Track Log - Related Links

Times and Time Zones

All times are in EDT time to prevent confusion due to time zone crossing. See the AWE3418 flight status page for this flight to view local times or setup timezone preferences in your user account.

Time Position Orientation Groundspeed Altitude Reporting Facility
EDT Latitude Longitude Course Direction KTS MPH feet Rate Location/Type
19:36 39.8756 -75.2189 37° Northeast 140 161 900  Level FAA TRACON SMA TRACON (SMA)
19:36 39.8747 -75.2003 93° East 144 166 1,500 1,320 Climbing FAA TRACON SMA TRACON (SMA)
19:37 39.8747 -75.1767 90° East 198 228 1,800 1,320 Climbing FAA TRACON SMA TRACON (SMA)
19:37 39.8733 -75.1536 94° East 213 245 2,400 1,620 Climbing FAA TRACON SMA TRACON (SMA)
19:37 39.8600 -75.1278 124° Southeast 228 262 2,900 1,620 Climbing FAA TRACON SMA TRACON (SMA)
19:38 39.8167 -74.9063 90° East  Level FlightAware Approximate
19:38 39.8461 -75.1069 131° Southeast 250 288 3,500  Level FAA TRACON SMA TRACON (SMA)
19:38 39.8306 -75.0836 131° Southeast 258 297 4,500 3,120 Climbing FAA TRACON SMA TRACON (SMA)
19:38 39.8136 -75.0575 130° Southeast 255 293 5,600 3,300 Climbing FAA TRACON SMA TRACON (SMA)
19:39 39.8022 -74.7943 105° East  Level FlightAware Approximate
19:39 39.7997 -75.0350 129° Southeast 258 297 6,700  Level FAA TRACON SMA TRACON (SMA)
19:39 39.7903 -75.0075 114° Southeast 287 330 7,300 1,920 Climbing FAA TRACON SMA TRACON (SMA)
19:39 39.7919 -74.9736 86° East 311 358 8,000 2,520 Climbing FAA TRACON SMA TRACON (SMA)
19:40 39.7937 -74.6897 37° Northeast  Level FlightAware Approximate
19:40 39.7925 -74.9311 89° East 309 356 9,000  Level FAA TRACON SMA TRACON (SMA)
19:40 39.7925 -74.8981 90° East 311 358 9,700 2,220 Climbing FAA TRACON SMA TRACON (SMA)
19:40 39.7925 -74.8608 90° East 317 365 10,500 2,700 Climbing FAA TRACON SMA TRACON (SMA)
19:41 39.8634 -74.6200 37° Northeast  Level FlightAware Approximate
19:41 39.7933 -74.8156 89° East 323 372 11,500  Level FAA TRACON SMA TRACON (SMA)
19:41 39.7933 -74.7794 90° East 324 373 12,000 720 Climbing FAA TRACON SMA TRACON (SMA)
19:41 39.7942 -74.7439 88° East 322 371 12,000  Level FAA TRACON SMA TRACON (SMA)
19:42 39.8094 -74.7044 63° Northeast 316 364 12,000  Level FAA TRACON SMA TRACON (SMA)
19:42 39.8306 -74.6806 41° Northeast 318 366 12,000 300 Level FAA TRACON SMA TRACON (SMA)
19:42 39.8586 -74.6528 37° Northeast 334 384 12,200 1,500 Climbing FAA TRACON SMA TRACON (SMA)
19:43 39.8808 -74.6306 37° Northeast 328 377 13,000 2,220 Climbing FAA TRACON SMA TRACON (SMA)
19:43 39.9039 -74.6081 37° Northeast 333 383 13,700 2,220 Climbing FAA TRACON SMA TRACON (SMA)
19:43 39.9319 -74.5806 37° Northeast 337 388 14,500 1,920 Climbing FAA TRACON SMA TRACON (SMA)
19:44 39.9556 -74.5575 37° Northeast 339 390 15,000 1,800 Climbing FAA TRACON SMA TRACON (SMA)
19:44 39.9806 -74.5322 38° Northeast 349 402 15,700 2,700 Climbing FAA TRACON SMA TRACON (SMA)
19:44 40.0111 -74.5025 37° Northeast 354 407 16,800 2,460 Climbing FAA TRACON SMA TRACON (SMA)
19:45 40.0350 -74.4783 38° Northeast 353 406 17,400 1,440 Climbing FAA TRACON SMA TRACON (SMA)
19:45 40.0594 -74.4544 37° Northeast 355 409 17,800 720 Climbing FAA TRACON SMA TRACON (SMA)
19:45 40.0653 -74.4486 37° Northeast 355 409 17,900 1,380 Climbing FAA TRACON SMA TRACON (SMA)
19:46 40.1419 -74.3742 37° Northeast 356 410 19,400 1,860 Climbing New York Center
19:47 40.2214 -74.2939 38° Northeast 362 417 21,200 1,680 Climbing New York Center
19:48 40.3053 -74.2083 38° Northeast 362 417 22,800 1,620 Climbing New York Center
19:49 40.3989 -74.1422 28° Northeast 367 422 24,500 1,500 Climbing New York Center
19:50 40.4947 -74.0733 29° Northeast 379 436 25,900 780 Climbing New York Center
19:52 40.6900 -73.9344 28° Northeast 379 436 27,000 300 Climbing Boston Center
19:53 40.7867 -73.8683 27° Northeast 384 442 27,000  Level Boston Center
19:54 40.8997 -73.8239 17° North 384 442 27,000  Level Boston Center
19:55 41.0081 -73.8236 360° North 381 438 27,000  Level Boston Center
19:56 41.1186 -73.8233 360° North 381 438 27,000  Level Boston Center
19:57 41.2497 -73.8233 360° North 387 445 27,000  Level Boston Center
19:58 41.3603 -73.8203 North 387 445 27,000  Level Boston Center
19:59 41.4667 -73.8197 360° North 387 445 27,000  Level Boston Center
20:00 41.5772 -73.8167 North 382 440 27,000  Level Boston Center
20:01 41.6856 -73.8133 North 382 440 27,000  Level Boston Center
20:02 41.7731 -73.8153 359° North 382 440 27,000  Level Boston Center
20:04 41.8897 -73.8178 359° North 377 434 27,000  Level Boston Center
20:05 42.0419 -73.8156 North 383 441 27,000 -180 Level Boston Center
20:06 42.1544 -73.8122 North 383 441 26,700 -960 Descending Boston Center
20:07 42.2608 -73.8119 360° North 383 441 25,200 -1,500 Descending Boston Center
20:08 42.3672 -73.8114 360° North 383 441 23,700 -1,140 Descending Boston Center
20:09 42.4714 -73.8081 North 383 441 23,000 -360 Descending Boston Center
20:10 42.5775 -73.8103 359° North 383 441 23,000 -420 Level Boston Center
20:12 42.7525 -73.6447 35° Northeast 352 405 21,800 -900 Descending Boston Center
20:13 42.7581 -73.5006 87° East 333 383 20,300 -1,440 Descending Boston Center
20:14 42.7636 -73.3450 87° East 351 404 19,000 -720 Descending Boston Center
20:15 42.7667 -73.2178 88° East 369 425 19,000  Level Boston Center
20:16 42.7717 -73.0653 87° East 363 418 19,000  Level Boston Center
20:17 42.7764 -72.9550 87° East 368 423 19,000 -420 Level Boston Center
20:18 42.7833 -72.7853 87° East 368 423 18,200 -960 Descending Boston Center
20:19 42.7858 -72.6494 89° East 363 418 17,100 -1,320 Descending Boston Center
20:20 42.7900 -72.5164 88° East 363 418 15,700 -1,440 Descending Boston Center
20:21 42.7942 -72.3864 87° East 351 404 14,300 -1,440 Descending Boston Center
20:22 42.7961 -72.2619 89° East 341 392 12,900 -1,440 Descending Boston Center
20:23 42.8064 -72.1344 84° East 336 387 11,500 -1,560 Descending Boston Center
20:24 42.8436 -72.0211 66° East 325 374 9,800 -1,620 Descending Boston Center
20:25 42.8828 -71.9103 64° Northeast 325 374 8,400 -1,560 Descending Boston Center
20:26 42.9217 -71.7994 64° Northeast 319 367 6,800 -1,560 Descending Boston Center
20:27 42.9628 -71.6939 62° Northeast 314 361 5,300 -1,080 Descending Boston Center
20:28 42.9894 -71.6283 61° Northeast 297 342 4,700 -660 Descending Boston Center
20:29 43.0747 -71.6214 North 216 249 4,000 -360 Descending Boston Center
20:30 43.1228 -71.6381 346° North 211 243 4,000  Level Boston Center
20:31 43.1500 -71.5833 56° Northeast 203 234 4,100  Climbing KA90
20:32 43.1167 -71.5500 144° Southeast 167 192 4,100 -300 Level KA90
20:33 43.0833 -71.5167 144° Southeast 152 175 3,500 -780 Descending KA90
20:34 43.0500 -71.5000 160° South 147 169 2,600 -900 Descending KA90
20:35 43.0167 -71.4833 160° South 144 166 1,800 -840 Descending KA90